Time;durP1;ratioP1;P1;durP2;ratioP2;P2;SDS_P1;SDS_P2;PMS_P1;PMS_P2;Temp;Humidity;BMP_temperature;BMP_pressure;BME280_temperature;BME280_humidity;BME280_pressure;Samples;Min_cycle;Max_cycle;Signal;HPM_P1;HPM_P2
2022/06/03 00:02:51;;;;;;;;;4.00;4.00;;;;;18.89;43.13;101039.59;5078475;28;45401;-72
2022/06/03 00:05:20;;;;;;;;;3.67;3.67;;;;;18.88;43.13;101037.94;5078788;27;45365;-72
2022/06/03 00:08:03;;;;;;;;;3.67;3.67;;;;;18.79;43.33;101038.25;5080435;27;45323;-72
2022/06/03 00:11:03;;;;;;;;;3.67;3.67;;;;;18.83;43.72;101046.72;5080481;28;45372;-72
2022/06/03 00:13:55;;;;;;;;;4.67;4.00;;;;;18.79;43.76;101035.53;5057296;28;45459;-72
2022/06/03 00:17:10;;;;;;;;;4.00;4.00;;;;;18.78;43.85;101039.28;5079848;27;45306;-72
2022/06/03 00:20:13;;;;;;;;;4.00;4.00;;;;;18.78;43.81;101033.06;5076813;27;47205;-72
2022/06/03 00:22:57;;;;;;;;;4.33;4.33;;;;;18.78;43.90;101033.06;5080254;28;46142;-72
2022/06/03 00:26:00;;;;;;;;;4.67;4.00;;;;;18.75;43.72;101034.34;5080316;28;45395;-72
2022/06/03 00:28:37;;;;;;;;;6.00;6.00;;;;;18.73;44.13;101038.28;5080520;28;45350;-71
2022/06/03 00:31:35;;;;;;;;;4.00;4.00;;;;;18.62;44.38;101023.72;5080205;28;45377;-72
2022/06/03 00:34:19;;;;;;;;;4.67;4.67;;;;;18.61;44.60;101028.25;5069475;27;45456;-71
2022/06/03 00:37:01;;;;;;;;;4.33;3.67;;;;;18.53;45.12;101029.34;5080288;28;45292;-72
2022/06/03 00:39:40;;;;;;;;;4.33;4.33;;;;;18.45;45.41;101026.13;5080307;28;45377;-72
2022/06/03 00:42:33;;;;;;;;;5.33;5.00;;;;;18.39;45.21;101027.84;5078522;28;47401;-72
2022/06/03 00:45:14;;;;;;;;;3.00;3.00;;;;;18.37;45.24;101029.91;5078366;28;48714;-72
2022/06/03 00:47:59;;;;;;;;;5.00;5.00;;;;;18.32;45.36;101022.53;5079761;28;45432;-72
2022/06/03 00:50:50;;;;;;;;;3.33;3.33;;;;;18.36;45.47;101022.88;5080222;28;45372;-72
2022/06/03 00:53:37;;;;;;;;;4.00;4.00;;;;;18.32;45.70;101024.38;5079962;28;45227;-72
2022/06/03 00:56:24;;;;;;;;;3.67;3.67;;;;;18.34;45.69;101027.66;5079666;28;45343;-72
2022/06/03 00:58:58;;;;;;;;;4.67;4.00;;;;;18.32;45.79;101024.38;5079468;28;45333;-72
2022/06/03 01:01:23;;;;;;;;;4.67;4.67;;;;;18.27;46.23;101020.47;5080005;28;45309;-71
2022/06/03 01:04:07;;;;;;;;;5.00;5.00;;;;;18.24;46.11;101022.78;5080176;27;45447;-71
2022/06/03 01:06:54;;;;;;;;;5.33;5.33;;;;;18.22;45.85;101017.63;5100258;27;46188;-72
2022/06/03 01:09:40;;;;;;;;;4.00;4.00;;;;;18.13;46.05;101005.47;5099821;27;45466;-72
2022/06/03 01:12:17;;;;;;;;;4.00;4.00;;;;;18.22;45.73;101020.31;5098930;27;45409;-72
2022/06/03 01:15:20;;;;;;;;;4.67;4.67;;;;;18.18;46.10;101019.09;5099866;27;45352;-72
2022/06/03 01:18:09;;;;;;;;;3.67;3.67;;;;;18.10;46.69;101022.00;5099798;27;46210;-72
2022/06/03 01:20:45;;;;;;;;;3.67;3.67;;;;;18.04;47.12;101021.84;5099915;27;45366;-72
2022/06/03 01:23:40;;;;;;;;;5.00;5.00;;;;;17.99;46.82;101015.50;5100185;27;45345;-72
2022/06/03 01:26:13;;;;;;;;;4.67;4.67;;;;;17.91;47.29;101016.56;5099229;27;45422;-72
2022/06/03 01:28:48;;;;;;;;;5.67;4.00;;;;;17.93;47.21;101022.56;5099552;27;45464;-72
2022/06/03 01:31:37;;;;;;;;;4.67;4.67;;;;;17.90;47.15;101023.00;5099895;27;45348;-72
2022/06/03 01:34:28;;;;;;;;;3.33;3.33;;;;;17.80;47.30;101015.38;5100146;27;45392;-71
2022/06/03 01:37:12;;;;;;;;;4.00;4.00;;;;;17.86;47.17;101025.28;5099756;27;45320;-72
2022/06/03 01:40:00;;;;;;;;;5.33;4.00;;;;;17.83;47.21;101024.88;5099685;27;45302;-72
2022/06/03 01:42:47;;;;;;;;;5.33;5.33;;;;;17.76;47.92;101017.69;5099422;27;45220;-72
2022/06/03 01:45:34;;;;;;;;;4.00;4.00;;;;;17.76;48.16;101015.00;5098413;27;45463;-72
2022/06/03 01:48:11;;;;;;;;;4.00;4.00;;;;;17.69;48.63;101014.19;5099716;27;45271;-71
2022/06/03 01:50:40;;;;;;;;;6.67;5.00;;;;;17.68;48.53;101015.25;5099320;27;46377;-72
2022/06/03 01:53:30;;;;;;;;;4.00;4.00;;;;;17.62;48.84;101006.19;5099612;27;45241;-72
2022/06/03 01:56:08;;;;;;;;;4.00;4.00;;;;;17.56;49.38;101012.41;5099645;27;45493;-71
2022/06/03 01:58:39;;;;;;;;;3.33;3.33;;;;;17.50;49.49;101015.94;5099294;27;45490;-72
2022/06/03 02:01:22;;;;;;;;;3.67;3.67;;;;;17.42;49.09;101011.66;5099514;27;46534;-72
2022/06/03 02:04:13;;;;;;;;;5.67;5.67;;;;;17.34;49.43;101007.34;5099015;27;45329;-72
2022/06/03 02:07:09;;;;;;;;;5.00;5.00;;;;;17.28;49.81;101003.66;5077891;27;45315;-72
2022/06/03 02:09:47;;;;;;;;;5.00;5.00;;;;;17.21;49.90;100992.09;5078606;27;45218;-72
2022/06/03 02:12:52;;;;;;;;;5.67;5.67;;;;;17.13;50.02;100982.44;5078826;27;45326;-72
2022/06/03 02:15:40;;;;;;;;;5.67;5.67;;;;;17.16;50.32;100987.38;5077478;28;45323;-72
2022/06/03 02:18:44;;;;;;;;;5.67;5.67;;;;;17.03;50.19;100971.28;5080834;27;45396;-71
2022/06/03 02:21:53;;;;;;;;;5.00;5.00;;;;;17.01;50.30;100973.34;5078795;28;45604;-71
2022/06/03 02:24:40;;;;;;;;;4.00;3.33;;;;;17.00;50.46;100971.72;5056154;28;46374;-72
2022/06/03 02:27:22;;;;;;;;;6.00;6.00;;;;;16.97;50.46;100962.22;5078337;27;45277;-72
2022/06/03 02:32:47;;;;;;;;;6.00;6.00;;;;;16.98;50.83;100955.81;5078627;28;45283;-72
2022/06/03 02:35:34;;;;;;;;;5.00;5.00;;;;;16.98;50.77;100955.81;5077480;28;47532;-72
2022/06/03 02:38:48;;;;;;;;;5.00;5.00;;;;;16.99;50.77;100954.78;5082068;28;45597;-72
2022/06/03 02:41:55;;;;;;;;;3.33;3.33;;;;;16.97;50.92;100943.41;5076787;27;45305;-72
2022/06/03 02:44:31;;;;;;;;;7.00;5.00;;;;;16.95;50.74;100940.13;5070980;27;45333;-72
2022/06/03 02:47:41;;;;;;;;;4.00;4.00;;;;;16.96;50.82;100936.41;5081982;28;46319;-72
2022/06/03 02:50:28;;;;;;;;;5.33;5.33;;;;;16.97;50.15;100934.56;5095758;27;45835;-71
2022/06/03 02:52:55;;;;;;;;;5.33;4.00;;;;;16.96;50.52;100932.88;5082063;28;45227;-72
2022/06/03 02:55:42;;;;;;;;;5.00;4.00;;;;;16.95;50.40;100928.56;5080792;28;45329;-72
2022/06/03 02:58:11;;;;;;;;;5.00;5.00;;;;;16.94;50.77;100930.41;5077002;27;45350;-71
2022/06/03 03:00:49;;;;;;;;;5.67;5.67;;;;;16.94;49.95;100932.28;5060973;28;45308;-72
2022/06/03 03:03:46;;;;;;;;;6.00;6.00;;;;;16.94;50.28;100929.59;5061550;28;45546;-72
2022/06/03 03:06:58;;;;;;;;;3.33;3.33;;;;;16.91;50.47;100936.19;5061377;28;45341;-72
2022/06/03 03:09:57;;;;;;;;;4.67;4.67;;;;;16.87;50.53;100929.63;5061078;28;46045;-72
2022/06/03 03:12:35;;;;;;;;;5.67;5.00;;;;;16.84;50.75;100927.34;5061370;28;45393;-72
2022/06/03 03:15:32;;;;;;;;;5.00;5.00;;;;;16.84;51.14;100930.88;5061250;28;45255;-72
2022/06/03 03:18:06;;;;;;;;;4.33;4.33;;;;;16.83;50.71;100928.41;5041201;28;45396;-72
2022/06/03 03:21:10;;;;;;;;;3.00;3.00;;;;;16.84;50.65;100922.81;5061097;28;45423;-72
2022/06/03 03:23:36;;;;;;;;;4.33;3.33;;;;;16.84;51.08;100933.56;5061172;28;45737;-72
2022/06/03 03:26:20;;;;;;;;;5.00;5.00;;;;;16.85;50.83;100937.88;5067936;28;45354;-72
2022/06/03 03:29:20;;;;;;;;;6.33;6.33;;;;;16.86;50.64;100933.34;5081031;28;45259;-72
2022/06/03 03:32:13;;;;;;;;;5.67;4.33;;;;;16.87;50.83;100929.63;5076668;28;47549;-72
2022/06/03 03:34:45;;;;;;;;;4.33;4.00;;;;;16.84;51.04;100938.09;5079692;28;45339;-72
2022/06/03 03:37:32;;;;;;;;;5.00;5.00;;;;;16.83;51.28;100941.81;5081324;28;45488;-72
2022/06/03 03:40:28;;;;;;;;;4.00;4.00;;;;;16.81;51.03;100951.94;5081270;27;45270;-72
2022/06/03 03:43:12;;;;;;;;;4.67;4.67;;;;;16.78;51.01;100948.66;5080792;27;46359;-72
2022/06/03 03:46:21;;;;;;;;;8.33;8.00;;;;;16.77;51.12;100946.19;5080900;27;45260;-72
2022/06/03 03:49:09;;;;;;;;;4.67;4.67;;;;;16.73;51.15;100935.03;5080159;27;45820;-72
2022/06/03 03:51:43;;;;;;;;;5.00;5.00;;;;;16.72;51.26;100929.88;5081134;27;45327;-72
2022/06/03 03:54:24;;;;;;;;;7.33;5.33;;;;;16.65;51.79;100928.03;5080858;27;45481;-72
2022/06/03 03:57:23;;;;;;;;;5.67;5.00;;;;;16.62;51.45;100925.78;5079259;28;45368;-72
2022/06/03 04:00:26;;;;;;;;;3.33;3.33;;;;;16.63;51.57;100926.59;5080931;27;45313;-72
2022/06/03 04:03:23;;;;;;;;;5.33;4.33;;;;;16.63;51.81;100929.28;5079549;27;45350;-72
2022/06/03 04:06:07;;;;;;;;;6.00;6.00;;;;;16.64;52.02;100925.56;5094829;27;45354;-72
2022/06/03 04:09:03;;;;;;;;;6.00;6.00;;;;;16.64;52.10;100920.22;5101023;27;45364;-72
2022/06/03 04:11:41;;;;;;;;;5.67;4.67;;;;;16.66;51.76;100923.50;5099737;27;45314;-72
2022/06/03 04:14:25;;;;;;;;;6.00;6.00;;;;;16.69;52.03;100928.44;5100962;27;45330;-72
2022/06/03 04:17:09;;;;;;;;;7.00;6.33;;;;;16.71;51.78;100931.75;5100943;27;45279;-72
2022/06/03 04:19:49;;;;;;;;;7.33;7.33;;;;;16.71;51.67;100937.13;5100954;27;45423;-72
2022/06/03 04:22:52;;;;;;;;;5.33;5.33;;;;;16.73;51.97;100940.38;5101126;27;45603;-72
2022/06/03 04:25:44;;;;;;;;;4.33;4.33;;;;;16.72;51.59;100949.50;5100754;27;45508;-72
2022/06/03 04:28:31;;;;;;;;;3.67;3.67;;;;;16.72;52.38;100941.44;5100876;27;45356;-72
2022/06/03 04:31:16;;;;;;;;;6.67;6.67;;;;;16.74;52.08;100938.53;5099655;27;45260;-72
2022/06/03 04:34:03;;;;;;;;;26.00;24.00;;;;;16.75;52.40;100930.28;5099581;27;45345;-72
2022/06/03 04:36:53;;;;;;;;;11.67;9.00;;;;;16.81;51.97;100930.47;5100745;27;45414;-72
2022/06/03 04:39:44;;;;;;;;;13.33;13.33;;;;;16.81;52.33;100925.91;5100598;27;45990;-71
2022/06/03 04:42:28;;;;;;;;;6.33;6.00;;;;;16.84;51.85;100921.97;5100285;27;45414;-72
2022/06/03 04:44:59;;;;;;;;;6.00;6.00;;;;;16.83;51.72;100926.53;5099162;27;45842;-72
2022/06/03 04:47:27;;;;;;;;;31.00;27.67;;;;;16.83;52.06;100928.41;5099018;27;47277;-72
2022/06/03 04:50:14;;;;;;;;;68.50;50.25;;;;;16.83;52.25;100934.59;5100218;27;45352;-72
2022/06/03 04:53:01;;;;;;;;;81.00;70.75;;;;;16.83;52.31;100931.09;5100274;27;45397;-72
2022/06/03 04:55:51;;;;;;;;;74.50;61.50;;;;;16.87;52.44;100932.31;5100498;27;45437;-72
2022/06/03 04:58:38;;;;;;;;;54.25;42.50;;;;;16.93;52.21;100936.81;5086179;27;46421;-71
2022/06/03 05:01:35;;;;;;;;;23.67;20.33;;;;;16.92;52.43;100935.19;5076186;27;46351;-72
2022/06/03 05:04:55;;;;;;;;;8.00;8.00;;;;;17.02;52.47;100942.78;5063544;27;45363;-72
2022/06/03 05:07:54;;;;;;;;;8.67;8.00;;;;;17.06;52.24;100948.56;5100395;27;45409;-71
2022/06/03 05:10:22;;;;;;;;;5.00;5.00;;;;;17.09;52.35;100951.66;5100231;27;45347;-72
2022/06/03 05:13:18;;;;;;;;;6.00;6.00;;;;;17.11;53.15;100946.06;5099956;27;45350;-72
2022/06/03 05:16:08;;;;;;;;;7.00;7.00;;;;;17.16;52.73;100943.59;5088448;27;45350;-72
2022/06/03 05:18:48;;;;;;;;;50.50;39.25;;;;;17.20;52.82;100938.59;5079569;27;45280;-72
2022/06/03 05:21:42;;;;;;;;;30.67;28.33;;;;;17.26;53.10;100937.75;5078112;28;47473;-72
2022/06/03 05:24:13;;;;;;;;;28.67;26.67;;;;;17.33;52.90;100938.53;5079440;27;45386;-72
2022/06/03 05:26:56;;;;;;;;;17.67;15.67;;;;;17.37;53.00;100945.16;5079294;27;45338;-72
2022/06/03 05:29:43;;;;;;;;;7.67;6.33;;;;;17.41;52.54;100942.84;5079442;27;45345;-72
2022/06/03 05:32:29;;;;;;;;;25.67;24.33;;;;;17.43;52.47;100943.47;5078085;28;46773;-72
2022/06/03 05:34:55;;;;;;;;;5.33;5.33;;;;;17.44;52.09;100944.25;5079432;27;45445;-72
2022/06/03 05:37:48;;;;;;;;;8.00;7.33;;;;;17.42;52.22;100936.44;5079315;28;45373;-72
2022/06/03 05:40:22;;;;;;;;;44.00;35.67;;;;;17.43;52.78;100940.78;5079614;28;45305;-72
2022/06/03 05:42:59;;;;;;;;;33.67;30.00;;;;;17.45;52.68;100935.19;5078831;27;45316;-72
2022/06/03 05:45:36;;;;;;;;;33.67;30.33;;;;;17.44;52.62;100928.97;5077902;27;46373;-72
2022/06/03 05:48:32;;;;;;;;;42.67;33.33;;;;;17.41;52.79;100924.03;5071227;27;45322;-72
2022/06/03 05:51:40;;;;;;;;;51.75;41.00;;;;;17.38;53.20;100919.09;5076866;27;45371;-72
2022/06/03 05:54:29;;;;;;;;;53.75;43.25;;;;;17.46;53.01;100918.84;5068254;27;45232;-72
2022/06/03 05:57:32;;;;;;;;;70.25;57.25;;;;;17.49;53.63;100915.72;5073599;27;47583;-72
2022/06/03 06:00:20;;;;;;;;;84.50;78.75;;;;;17.54;53.31;100917.78;5067792;27;46181;-72
2022/06/03 06:02:57;;;;;;;;;93.00;84.50;;;;;17.58;53.33;100915.47;5075332;28;45411;-72
2022/06/03 06:05:37;;;;;;;;;57.50;45.75;;;;;17.62;53.71;100913.97;5091634;27;45416;-72
2022/06/03 06:08:06;;;;;;;;;29.00;26.00;;;;;17.66;53.72;100912.53;5125278;27;48719;-73
2022/06/03 06:10:56;;;;;;;;;62.00;47.75;;;;;17.73;53.59;100921.38;5079451;27;45330;-72
2022/06/03 06:13:50;;;;;;;;;75.50;67.25;;;;;17.79;53.89;100917.81;5082543;27;45298;-72
2022/06/03 06:16:19;;;;;;;;;60.75;48.00;;;;;17.74;53.72;100893.44;5082249;27;45250;-71
2022/06/03 06:19:00;;;;;;;;;9.67;9.00;;;;;17.96;53.63;100919.94;5082065;28;46056;-72
2022/06/03 06:22:02;;;;;;;;;9.33;9.33;;;;;18.05;52.91;100923.19;5082483;27;45332;-72
2022/06/03 06:24:43;;;;;;;;;5.00;5.00;;;;;18.15;52.51;100925.41;5082528;28;45341;-72
2022/06/03 06:27:36;;;;;;;;;7.00;7.00;;;;;18.17;52.96;100916.06;5080755;28;45991;-72
2022/06/03 06:30:29;;;;;;;;;33.00;27.00;;;;;18.23;52.72;100914.34;5080507;28;48614;-72
2022/06/03 06:33:23;;;;;;;;;34.33;28.33;;;;;18.26;53.04;100907.72;5082184;27;45314;-71
2022/06/03 06:36:25;;;;;;;;;14.67;13.00;;;;;18.35;52.47;100914.44;5081005;28;45452;-72
2022/06/03 06:39:17;;;;;;;;;10.33;10.00;;;;;18.43;52.53;100924.09;5082068;27;45368;-72
2022/06/03 06:42:22;;;;;;;;;39.75;33.00;;;;;18.50;52.78;100921.34;5081853;27;45323;-71
2022/06/03 06:45:16;;;;;;;;;11.00;11.00;;;;;18.54;52.79;100928.75;5058149;27;45510;-71
2022/06/03 06:47:47;;;;;;;;;8.00;8.00;;;;;18.58;52.89;100925.63;5079703;27;45170;-72
2022/06/03 06:50:27;;;;;;;;;9.67;9.67;;;;;18.60;52.47;100924.34;5081939;27;45461;-71
2022/06/03 06:52:52;;;;;;;;;15.00;15.00;;;;;18.64;52.92;100916.63;5080491;28;47175;-71
2022/06/03 06:55:35;;;;;;;;;14.67;14.00;;;;;18.72;52.97;100916.34;5080445;28;45300;-71
2022/06/03 06:58:20;;;;;;;;;39.67;33.67;;;;;18.79;53.00;100908.19;5081850;27;45325;-71
2022/06/03 07:00:49;;;;;;;;;64.00;49.50;;;;;18.84;52.97;100902.13;5081584;27;45305;-71
2022/06/03 07:03:28;;;;;;;;;48.75;38.75;;;;;18.87;52.77;100905.19;5080265;28;47162;-70
2022/06/03 07:06:05;;;;;;;;;58.25;45.50;;;;;19.00;53.17;100914.13;5099434;27;45515;-71
2022/06/03 07:09:08;;;;;;;;;147.25;125.50;;;;;19.07;52.53;100911.38;5101948;27;45567;-72
2022/06/03 07:11:58;;;;;;;;;59.00;47.50;;;;;19.14;52.78;100920.22;5095002;27;45469;-71
2022/06/03 07:14:31;;;;;;;;;35.67;30.67;;;;;19.15;52.77;100913.78;5101903;27;45489;-79
2022/06/03 07:20:10;;;;;;;;;44.33;36.00;;;;;19.37;53.51;100910.59;5061374;28;45369;-71
2022/06/03 07:22:46;;;;;;;;;72.75;65.00;;;;;19.37;52.85;100899.81;5058218;28;45992;-71
2022/06/03 07:25:24;;;;;;;;;37.00;31.00;;;;;19.53;52.92;100919.88;5059559;28;47671;-71
2022/06/03 07:28:17;;;;;;;;;17.00;17.00;;;;;19.63;52.66;100914.75;5060707;28;45433;-71
2022/06/03 07:30:57;;;;;;;;;16.67;16.33;;;;;19.72;52.75;100912.53;5061024;28;45341;-71
2022/06/03 07:33:31;;;;;;;;;51.50;40.50;;;;;19.91;52.48;100915.16;5067378;28;45346;-73
2022/06/03 07:36:21;;;;;;;;;54.25;41.50;;;;;20.02;52.72;100917.06;5078581;28;47107;-71
2022/06/03 07:38:57;;;;;;;;;12.00;11.33;;;;;20.14;52.20;100930.56;5080456;27;45324;-71
2022/06/03 07:41:35;;;;;;;;;13.00;13.00;;;;;20.19;52.01;100919.06;5079770;28;45221;-71
2022/06/03 07:44:19;;;;;;;;;16.00;14.33;;;;;20.22;51.69;100918.59;5079342;28;46195;-72
2022/06/03 07:47:00;;;;;;;;;10.00;10.00;;;;;20.34;51.76;100920.47;5080900;28;45489;-71
2022/06/03 07:49:28;;;;;;;;;12.00;11.00;;;;;20.51;52.40;100924.13;5081075;27;45290;-71
2022/06/03 07:52:08;;;;;;;;;12.67;10.00;;;;;20.64;52.06;100919.50;5079549;28;45354;-71
2022/06/03 07:54:36;;;;;;;;;8.00;8.00;;;;;20.72;51.63;100918.31;5080913;27;45554;-71
2022/06/03 07:57:07;;;;;;;;;16.33;15.33;;;;;20.87;52.06;100920.50;5080527;27;45390;-71
2022/06/03 07:59:35;;;;;;;;;33.67;30.33;;;;;20.96;51.88;100929.06;5080560;27;45389;-72
2022/06/03 08:02:04;;;;;;;;;17.67;17.00;;;;;20.97;51.75;100920.75;5080923;27;45326;-71
2022/06/03 08:04:32;;;;;;;;;13.33;13.00;;;;;21.03;51.35;100919.78;5086840;27;45385;-71
2022/06/03 08:12:34;;;;;;;;;12.00;11.33;;;;;21.26;51.65;100920.75;5080760;28;45394;-72
2022/06/03 08:15:14;;;;;;;;;13.00;13.00;;;;;21.32;52.18;100918.97;5079032;28;46313;-71
2022/06/03 08:17:40;;;;;;;;;66.25;54.25;;;;;21.42;51.59;100915.59;5080031;27;45428;-71
2022/06/03 08:20:06;;;;;;;;;54.75;44.00;;;;;21.42;52.00;100912.91;5080551;27;45320;-71
2022/06/03 08:22:33;;;;;;;;;15.00;15.00;;;;;21.53;51.50;100908.50;5080415;27;45366;-71
2022/06/03 08:25:00;;;;;;;;;6.67;6.00;;;;;21.66;51.66;100913.59;5080597;27;45251;-71
2022/06/03 08:27:32;;;;;;;;;22.00;20.33;;;;;21.71;51.40;100907.47;5078824;28;47112;-71
2022/06/03 08:30:02;;;;;;;;;12.67;12.67;;;;;21.86;51.46;100923.16;5080169;27;45267;-71
2022/06/03 08:32:32;;;;;;;;;60.75;47.75;;;;;21.92;51.13;100915.94;5080400;28;45389;-71
2022/06/03 08:35:00;;;;;;;;;30.67;28.67;;;;;21.98;51.57;100906.81;5079835;27;45169;-71
2022/06/03 08:37:32;;;;;;;;;38.00;30.00;;;;;22.12;51.79;100912.69;5078656;28;47978;-71
2022/06/03 08:40:01;;;;;;;;;40.33;33.33;;;;;22.16;51.43;100913.03;5078819;27;45717;-71
2022/06/03 08:42:29;;;;;;;;;46.67;38.67;;;;;22.17;51.25;100909.25;5079892;28;45427;-71
2022/06/03 08:45:33;;;;;;;;;51.25;41.75;;;;;22.27;51.64;100895.88;5079961;27;45425;-71
2022/06/03 08:48:06;;;;;;;;;19.00;16.33;;;;;22.33;51.51;100886.75;5065374;28;45366;-71
2022/06/03 08:50:41;;;;;;;;;12.67;12.67;;;;;22.49;51.05;100889.66;5073128;27;45535;-72
2022/06/03 08:53:17;;;;;;;;;10.00;10.00;;;;;22.52;50.94;100886.47;5080389;27;45271;-72
2022/06/03 08:55:45;;;;;;;;;10.00;10.00;;;;;22.61;50.78;100888.75;5078477;28;46345;-71
2022/06/03 08:58:29;;;;;;;;;23.00;19.00;;;;;22.70;51.27;100896.19;5078303;28;47398;-72
2022/06/03 09:01:08;;;;;;;;;71.00;56.50;;;;;22.79;50.46;100899.28;5079898;28;45331;-71
2022/06/03 09:03:46;;;;;;;;;38.33;32.67;;;;;22.90;50.94;100891.25;5079875;27;45276;-72
2022/06/03 09:06:46;;;;;;;;;20.67;19.00;;;;;23.02;50.43;100896.53;5059332;28;45366;-72
2022/06/03 09:09:33;;;;;;;;;12.00;11.67;;;;;23.08;50.75;100882.78;5055185;28;45304;-71
2022/06/03 09:12:20;;;;;;;;;19.67;19.33;;;;;23.20;50.37;100892.66;5059509;28;45279;-72
2022/06/03 09:14:49;;;;;;;;;42.00;35.00;;;;;23.28;50.89;100878.63;5059422;28;45326;-71
2022/06/03 09:17:35;;;;;;;;;15.00;15.00;;;;;23.41;50.59;100895.59;5059413;28;45425;-71
2022/06/03 09:20:07;;;;;;;;;46.00;37.67;;;;;23.42;50.33;100895.34;5071580;28;45528;-71
2022/06/03 09:22:33;;;;;;;;;53.25;42.75;;;;;23.44;50.56;100892.38;5095264;27;45993;-71
2022/06/03 09:25:01;;;;;;;;;49.00;39.67;;;;;23.53;50.70;100898.13;5095378;27;45330;-71
2022/06/03 09:27:29;;;;;;;;;45.33;37.67;;;;;23.50;50.31;100898.66;5095059;27;46202;-71
2022/06/03 09:29:58;;;;;;;;;122.25;112.00;;;;;23.57;50.21;100905.50;5079230;28;45471;-71
2022/06/03 09:32:26;;;;;;;;;19.00;17.67;;;;;23.60;50.38;100906.03;5112209;27;45799;-71
2022/06/03 09:35:04;;;;;;;;;20.33;20.00;;;;;23.56;50.26;100903.03;5079557;28;45338;-71
2022/06/03 09:37:33;;;;;;;;;40.67;35.00;;;;;23.61;50.38;100905.00;5094736;27;46076;-72
2022/06/03 09:40:01;;;;;;;;;75.25;67.75;;;;;23.61;50.76;100907.69;5074785;27;46029;-72
2022/06/03 09:42:29;;;;;;;;;21.67;18.67;;;;;23.58;50.39;100899.00;5086564;27;45347;-71
2022/06/03 09:44:56;;;;;;;;;20.67;20.00;;;;;23.57;50.92;100893.81;5058979;28;45325;-71
2022/06/03 09:47:23;;;;;;;;;20.00;18.67;;;;;23.75;50.43;100911.59;5062489;28;45305;-71
2022/06/03 09:49:52;;;;;;;;;37.67;32.67;;;;;23.85;50.94;100937.97;5062394;28;45381;-71
2022/06/03 09:52:24;;;;;;;;;16.33;16.00;;;;;23.96;50.82;100936.19;5079832;28;45430;-71
2022/06/03 09:54:51;;;;;;;;;13.00;13.00;;;;;24.06;50.74;100936.25;5083083;27;45317;-71
2022/06/03 09:57:17;;;;;;;;;14.33;14.33;;;;;24.15;50.86;100941.22;5082644;27;45322;-72
2022/06/03 09:59:57;;;;;;;;;12.00;12.00;;;;;24.26;50.55;100939.38;5082377;28;45440;-71
2022/06/03 10:02:24;;;;;;;;;13.00;13.00;;;;;24.33;50.65;100913.63;5081534;28;45354;-72
2022/06/03 10:04:49;;;;;;;;;11.67;11.67;;;;;24.61;50.63;100929.81;5091473;27;45342;-72
2022/06/03 10:07:15;;;;;;;;;14.67;14.67;;;;;24.75;50.25;100918.44;5102858;27;45282;-71
2022/06/03 10:12:50;;;;;;;;;13.33;13.33;;;;;24.88;51.34;100917.16;5059813;28;45331;-71
2022/06/03 10:15:40;;;;;;;;;13.00;13.00;;;;;24.99;50.47;100923.44;5096461;27;45943;-71
2022/06/03 10:18:12;;;;;;;;;14.67;14.67;;;;;25.03;51.43;100919.09;5102804;27;45404;-73
2022/06/03 10:20:37;;;;;;;;;18.33;15.00;;;;;25.08;51.39;100930.81;5102985;27;45404;-72
2022/06/03 10:23:04;;;;;;;;;13.67;13.67;;;;;25.15;51.00;100927.84;5102742;27;45752;-71
2022/06/03 10:25:29;;;;;;;;;14.67;13.67;;;;;25.15;51.23;100927.00;5103606;27;45352;-71
2022/06/03 10:27:55;;;;;;;;;16.67;15.33;;;;;25.27;50.74;100929.47;5101580;27;46173;-72
2022/06/03 10:30:30;;;;;;;;;14.33;14.33;;;;;25.32;51.41;100922.13;5103138;27;46700;-72
2022/06/03 10:32:56;;;;;;;;;13.00;12.00;;;;;25.36;50.73;100927.03;5103129;27;45310;-71
2022/06/03 10:35:27;;;;;;;;;15.00;13.67;;;;;25.31;50.48;100928.69;5103308;27;45333;-72
2022/06/03 10:37:58;;;;;;;;;14.67;14.33;;;;;25.33;50.73;100928.41;5102781;27;45320;-71
2022/06/03 10:40:26;;;;;;;;;17.00;15.33;;;;;25.36;50.90;100935.19;5084263;27;46366;-71
2022/06/03 10:42:57;;;;;;;;;14.67;14.67;;;;;25.36;50.68;100933.31;5066992;27;45376;-72
2022/06/03 10:45:31;;;;;;;;;15.00;14.33;;;;;25.34;50.75;100938.19;5076467;28;45587;-73
2022/06/03 10:47:56;;;;;;;;;16.00;16.00;;;;;25.33;50.99;100921.06;5067359;27;46082;-72
2022/06/03 10:50:34;;;;;;;;;16.33;16.33;;;;;25.38;50.49;100920.25;5076943;27;48549;-72
2022/06/03 11:01:43;;;;;;;;;12.67;12.67;;;;;25.38;50.51;100914.81;5081542;28;45266;-71
2022/06/03 11:04:33;;;;;;;;;13.00;13.00;;;;;25.37;51.50;100921.34;5085181;27;45339;-71
2022/06/03 11:07:01;;;;;;;;;13.00;12.33;;;;;25.31;52.22;100906.09;5094699;27;45315;-72
2022/06/03 11:09:27;;;;;;;;;13.00;13.00;;;;;25.44;51.44;100927.31;5080873;27;45448;-71
2022/06/03 11:12:02;;;;;;;;;13.00;13.00;;;;;25.53;51.47;100934.97;5080724;28;46098;-71
2022/06/03 11:14:38;;;;;;;;;13.67;13.67;;;;;25.63;51.21;100932.28;5075269;28;46015;-70
2022/06/03 11:17:08;;;;;;;;;14.00;13.00;;;;;25.68;51.88;100945.06;5058433;28;45385;-70
2022/06/03 11:19:47;;;;;;;;;11.67;11.67;;;;;25.74;51.24;100935.81;5059665;28;45394;-70
2022/06/03 11:22:16;;;;;;;;;12.67;12.67;;;;;25.84;51.16;100935.00;5061065;28;45935;-70
2022/06/03 11:24:50;;;;;;;;;13.00;13.00;;;;;25.99;51.28;100938.78;5061059;28;45401;-70
2022/06/03 11:27:19;;;;;;;;;13.00;13.00;;;;;26.07;50.72;100928.13;5061358;28;45419;-70
2022/06/03 11:29:47;;;;;;;;;12.33;12.33;;;;;26.24;50.83;100932.47;5061024;28;45509;-70
2022/06/03 11:32:16;;;;;;;;;15.67;15.67;;;;;26.41;50.85;100931.38;5064655;27;46271;-71
2022/06/03 11:34:54;;;;;;;;;13.33;13.33;;;;;26.54;50.29;100933.50;5076077;28;45373;-71
2022/06/03 11:37:41;;;;;;;;;17.00;17.00;;;;;26.61;49.71;100941.41;5080525;27;45326;-70
2022/06/03 11:40:22;;;;;;;;;17.00;17.00;;;;;26.74;50.28;100945.41;5087792;27;45607;-71
2022/06/03 11:43:05;;;;;;;;;11.33;11.33;;;;;26.84;49.88;100941.81;5077658;28;46603;-70
2022/06/03 11:45:40;;;;;;;;;15.67;14.33;;;;;26.92;49.30;100948.59;5095208;27;45469;-71
2022/06/03 11:48:27;;;;;;;;;14.00;14.00;;;;;26.97;48.88;100956.78;5080696;27;45366;-71
2022/06/03 11:50:53;;;;;;;;;15.00;14.00;;;;;26.96;49.44;100955.13;5079066;28;46013;-70
2022/06/03 11:53:33;;;;;;;;;16.00;15.67;;;;;26.96;49.54;100955.94;5068925;27;45639;-71
2022/06/03 11:56:02;;;;;;;;;16.67;15.67;;;;;26.92;49.43;100948.59;5060555;28;45352;-71
2022/06/03 11:58:44;;;;;;;;;13.67;12.67;;;;;26.82;49.50;100950.28;5060753;28;45360;-70
2022/06/03 12:01:18;;;;;;;;;14.33;13.67;;;;;26.75;49.87;100943.53;5071132;28;45298;-72
2022/06/03 12:04:15;;;;;;;;;14.67;14.67;;;;;26.76;49.67;100951.41;5073579;27;47211;-71
2022/06/03 12:07:08;;;;;;;;;13.67;13.67;;;;;26.69;50.31;100953.59;5072863;28;45421;-70
2022/06/03 12:10:00;;;;;;;;;12.67;12.67;;;;;26.66;49.78;100951.47;5079688;27;45291;-70
2022/06/03 12:15:31;;;;;;;;;13.00;13.00;;;;;26.49;50.26;100949.88;5079933;28;45285;-71
2022/06/03 12:18:32;;;;;;;;;12.67;12.67;;;;;26.40;50.11;100943.38;5079704;28;45212;-70
2022/06/03 12:20:59;;;;;;;;;12.33;12.00;;;;;26.36;50.69;100956.72;5043233;28;45469;-71
2022/06/03 12:23:25;;;;;;;;;12.33;12.33;;;;;26.27;50.41;100952.91;5071755;28;45516;-70
2022/06/03 12:25:53;;;;;;;;;13.67;13.67;;;;;26.20;50.56;100961.34;5076649;28;46266;-71
2022/06/03 12:28:18;;;;;;;;;14.33;13.33;;;;;26.16;51.38;100955.63;5075224;28;45714;-71
2022/06/03 12:30:50;;;;;;;;;16.33;16.00;;;;;26.13;51.56;100958.09;5073314;28;45346;-71
2022/06/03 12:33:26;;;;;;;;;15.33;15.00;;;;;26.12;52.04;100954.56;5077467;28;45292;-70
2022/06/03 12:35:56;;;;;;;;;15.33;15.33;;;;;26.13;51.98;100952.66;5072802;28;48329;-70
2022/06/03 12:38:21;;;;;;;;;15.67;15.67;;;;;26.11;51.92;100950.19;5059477;28;45465;-70
2022/06/03 12:40:49;;;;;;;;;16.67;14.33;;;;;26.09;52.79;100949.66;5066025;28;45474;-70
2022/06/03 12:43:29;;;;;;;;;17.33;15.00;;;;;26.08;51.83;100954.31;5079188;27;45385;-70
2022/06/03 12:46:10;;;;;;;;;14.33;13.67;;;;;26.03;52.61;100937.13;5078929;27;45911;-71
2022/06/03 12:48:51;;;;;;;;;13.33;13.33;;;;;26.00;52.13;100941.22;5079873;27;45454;-70